Terminal Aerodrome Forecast
Issued by NWS

Home | Current Version | Previous Version | Text Only | Print | Product List | Glossary On
Versions: 1 2 3 4 5 6 7 8 9 10 11 12 13 14 15 16 17 18 19 20 21 22
000
FTUS41 KPHI 230500
TAFPNE
TAF
KPNE 230532Z 2306/2406 07006KT P6SM SCT025 BKN090
     FM230800 07005KT P6SM OVC025
     FM231000 07007KT 6SM BR OVC010
     FM231300 06009KT P6SM OVC020
     FM231800 08007KT P6SM SCT025 BKN050
     FM240500 04003KT P6SM SCT050 SCT120=

USA.gov is the U.S. government's official web portal to all federal, state and local government web resources and services.